createdAt,value
2022-07-26T00:02:24.305Z,19.30
2022-07-26T00:05:41.975Z,19.20
2022-07-26T00:09:05.465Z,19.20
2022-07-26T00:14:38.034Z,19.00
2022-07-26T00:20:32.253Z,18.90
2022-07-26T00:23:46.499Z,18.90
2022-07-26T00:26:41.852Z,18.80
2022-07-26T00:29:31.559Z,18.70
2022-07-26T00:32:06.776Z,18.60
2022-07-26T00:34:56.687Z,18.50
2022-07-26T00:37:41.402Z,18.40
2022-07-26T00:40:26.584Z,18.40
2022-07-26T00:43:48.505Z,18.40
2022-07-26T00:46:46.795Z,18.40
2022-07-26T00:49:32.697Z,18.40
2022-07-26T00:56:07.783Z,18.30
2022-07-26T00:59:19.871Z,18.30
2022-07-26T01:02:29.694Z,18.40
2022-07-26T01:08:29.206Z,18.40
2022-07-26T01:11:24.725Z,18.40
2022-07-26T01:14:21.993Z,18.40
2022-07-26T01:20:00.407Z,18.50
2022-07-26T01:26:00.271Z,18.60
2022-07-26T01:28:46.977Z,18.70
2022-07-26T01:31:40.236Z,18.70
2022-07-26T01:37:58.528Z,18.70
2022-07-26T01:41:37.225Z,18.70
2022-07-26T01:44:36.692Z,18.70
2022-07-26T01:47:33.945Z,18.80
2022-07-26T01:50:27.698Z,18.80
2022-07-26T01:53:19.703Z,18.80
2022-07-26T01:56:49.614Z,18.70
2022-07-26T02:00:16.818Z,18.70
2022-07-26T02:03:26.353Z,18.70
2022-07-26T02:06:27.251Z,18.60
2022-07-26T02:09:43.597Z,18.60
2022-07-26T02:13:03.952Z,18.60
2022-07-26T02:15:49.747Z,18.60
2022-07-26T02:18:31.156Z,18.50
2022-07-26T02:21:26.057Z,18.40
2022-07-26T02:27:16.749Z,18.30
2022-07-26T02:30:00.622Z,18.10
2022-07-26T02:36:26.348Z,17.90
2022-07-26T02:39:12.349Z,17.80
2022-07-26T02:42:05.796Z,17.70
2022-07-26T02:45:19.084Z,17.50
2022-07-26T02:48:06.092Z,17.50
2022-07-26T02:50:51.433Z,17.40
2022-07-26T02:56:42.570Z,17.30
2022-07-26T03:02:45.698Z,17.20
2022-07-26T03:05:35.152Z,17.10
2022-07-26T03:08:31.380Z,17.00
2022-07-26T03:11:21.077Z,16.90
2022-07-26T03:17:09.076Z,16.80
2022-07-26T03:19:47.057Z,16.80
2022-07-26T03:22:49.051Z,16.80
2022-07-26T03:28:37.870Z,16.70
2022-07-26T03:31:14.430Z,16.70
2022-07-26T03:36:49.270Z,16.90
2022-07-26T03:39:40.448Z,17.00
2022-07-26T03:42:23.523Z,17.00
2022-07-26T03:45:43.285Z,17.10
2022-07-26T03:48:43.147Z,17.10
2022-07-26T03:51:42.881Z,17.30
2022-07-26T03:54:32.635Z,17.40
2022-07-26T03:57:19.539Z,17.40
2022-07-26T04:00:07.161Z,17.50
2022-07-26T04:05:21.725Z,17.70
2022-07-26T04:07:53.106Z,17.70
2022-07-26T04:10:36.869Z,17.80
2022-07-26T04:13:04.930Z,17.80
2022-07-26T04:15:32.993Z,17.80
2022-07-26T04:18:01.059Z,17.80
2022-07-26T04:20:30.555Z,17.80
2022-07-26T04:22:58.643Z,17.80
2022-07-26T04:25:26.819Z,17.80
2022-07-26T04:28:07.118Z,17.90
2022-07-26T04:30:35.173Z,17.90
2022-07-26T04:33:03.353Z,17.90
2022-07-26T04:35:33.118Z,17.90
2022-07-26T04:38:02.008Z,18.00
2022-07-26T04:40:33.468Z,18.00
2022-07-26T04:43:02.471Z,18.00
2022-07-26T04:45:31.110Z,18.00
2022-07-26T04:47:59.495Z,18.00
2022-07-26T04:50:28.764Z,18.00
2022-07-26T04:52:58.207Z,18.00
2022-07-26T04:55:26.291Z,18.10
2022-07-26T04:57:54.433Z,18.10
2022-07-26T05:00:25.149Z,18.10
2022-07-26T05:02:54.598Z,18.20
2022-07-26T05:05:23.524Z,18.20
2022-07-26T05:07:53.235Z,18.30
2022-07-26T05:10:28.751Z,18.30
2022-07-26T05:12:57.004Z,18.30
2022-07-26T05:15:25.453Z,18.40
2022-07-26T05:18:07.118Z,18.40
2022-07-26T05:20:36.990Z,18.50
2022-07-26T05:23:05.306Z,18.50
2022-07-26T05:25:34.748Z,18.50
2022-07-26T05:28:02.914Z,18.60
2022-07-26T05:30:31.195Z,18.60
2022-07-26T05:32:59.260Z,18.60
2022-07-26T05:35:27.438Z,18.60
2022-07-26T05:37:55.593Z,18.60
2022-07-26T05:40:23.714Z,18.60
2022-07-26T05:42:53.215Z,18.60
2022-07-26T05:45:21.432Z,18.60
2022-07-26T05:47:51.448Z,18.60
2022-07-26T05:50:20.443Z,18.70
2022-07-26T05:52:48.650Z,18.40
2022-07-26T05:55:16.680Z,18.80
2022-07-26T05:57:47.569Z,18.90
2022-07-26T06:00:20.855Z,19.00
2022-07-26T06:02:49.021Z,19.00
2022-07-26T06:05:17.518Z,19.10
2022-07-26T06:07:45.565Z,19.20
2022-07-26T06:10:14.187Z,19.20
2022-07-26T06:12:42.205Z,19.30
2022-07-26T06:15:15.461Z,19.30
2022-07-26T06:17:45.437Z,19.40
2022-07-26T06:20:13.675Z,19.40
2022-07-26T06:22:41.762Z,19.30
2022-07-26T06:25:10.436Z,19.30
2022-07-26T06:27:38.542Z,19.30
2022-07-26T06:30:08.646Z,19.30
2022-07-26T06:32:36.797Z,19.30
2022-07-26T06:35:07.086Z,19.30
2022-07-26T06:37:37.703Z,19.30
2022-07-26T06:40:07.515Z,19.30
2022-07-26T06:42:35.727Z,19.30
2022-07-26T06:45:04.575Z,19.20
2022-07-26T06:47:32.905Z,19.20
2022-07-26T06:50:00.925Z,19.10
2022-07-26T06:52:30.356Z,19.10
2022-07-26T06:54:58.428Z,19.10
2022-07-26T06:57:26.558Z,19.10
2022-07-26T06:59:54.757Z,19.00
2022-07-26T07:02:22.780Z,19.00
2022-07-26T07:04:50.948Z,19.00
2022-07-26T07:07:19.094Z,19.10
2022-07-26T07:09:48.450Z,19.10
2022-07-26T07:12:17.028Z,19.20
2022-07-26T07:14:45.136Z,19.40
2022-07-26T07:17:18.499Z,19.50
2022-07-26T07:19:48.188Z,19.60
2022-07-26T07:22:16.698Z,19.70
2022-07-26T07:24:44.848Z,19.80
2022-07-26T07:27:16.239Z,19.80
2022-07-26T07:29:44.636Z,19.80
2022-07-26T07:32:18.034Z,19.80
2022-07-26T07:34:47.530Z,19.80
2022-07-26T07:37:16.006Z,19.80
2022-07-26T07:39:44.089Z,19.80
2022-07-26T07:42:18.375Z,20.00
2022-07-26T07:44:46.453Z,20.20
2022-07-26T07:47:14.778Z,20.40
2022-07-26T07:49:42.893Z,20.50
2022-07-26T07:52:11.000Z,20.60
2022-07-26T07:54:39.064Z,20.70
2022-07-26T07:57:07.127Z,20.90
2022-07-26T07:59:37.085Z,21.10
2022-07-26T08:02:07.794Z,21.20
2022-07-26T08:04:36.143Z,21.40
2022-07-26T08:07:04.297Z,21.50
2022-07-26T08:09:33.728Z,21.50
2022-07-26T08:12:02.263Z,21.50
2022-07-26T08:14:30.515Z,21.60
2022-07-26T08:16:59.954Z,21.70
2022-07-26T08:19:40.807Z,21.70
2022-07-26T08:22:10.600Z,21.90
2022-07-26T08:24:38.791Z,21.90
2022-07-26T08:27:07.035Z,21.90
2022-07-26T08:29:35.077Z,22.00
2022-07-26T08:32:04.696Z,21.90
2022-07-26T08:34:32.800Z,21.70
2022-07-26T08:37:16.572Z,21.60
2022-07-26T08:39:45.461Z,21.50
2022-07-26T08:42:17.013Z,21.30
2022-07-26T08:44:51.756Z,21.30
2022-07-26T08:47:37.566Z,21.30
2022-07-26T08:50:07.087Z,21.70
2022-07-26T08:52:35.185Z,22.30
2022-07-26T08:55:03.194Z,22.60
2022-07-26T08:57:31.259Z,23.10
2022-07-26T09:00:19.144Z,23.70
2022-07-26T09:02:49.225Z,24.40
2022-07-26T09:05:20.707Z,25.00
2022-07-26T09:07:48.817Z,25.20
2022-07-26T09:10:17.924Z,25.20
2022-07-26T09:12:46.438Z,25.40
2022-07-26T09:15:22.272Z,25.50
2022-07-26T09:17:53.723Z,25.50
2022-07-26T09:20:24.503Z,25.30
2022-07-26T09:22:59.972Z,25.00
2022-07-26T09:25:29.277Z,25.40
2022-07-26T09:27:59.528Z,25.60
2022-07-26T09:30:28.593Z,25.70
2022-07-26T09:33:06.563Z,26.00
2022-07-26T09:35:50.442Z,25.60
2022-07-26T09:38:20.355Z,25.40
2022-07-26T09:40:50.846Z,25.60
2022-07-26T09:43:24.493Z,26.30
2022-07-26T09:46:05.333Z,27.30
2022-07-26T09:49:07.122Z,28.00
2022-07-26T09:51:40.505Z,27.90
2022-07-26T09:54:09.840Z,27.00
2022-07-26T09:56:47.277Z,26.20
2022-07-26T09:59:17.197Z,25.60
2022-07-26T10:01:45.591Z,25.00
2022-07-26T10:04:15.826Z,24.40
2022-07-26T10:06:44.521Z,23.80
2022-07-26T10:09:14.657Z,23.40
2022-07-26T10:11:48.624Z,23.10
2022-07-26T10:14:35.557Z,22.80
2022-07-26T10:17:49.537Z,22.60
2022-07-26T10:20:45.469Z,22.80
2022-07-26T10:23:50.487Z,23.40
2022-07-26T10:26:40.645Z,23.60
2022-07-26T10:29:25.795Z,23.70
2022-07-26T10:32:20.206Z,24.00
2022-07-26T10:34:48.704Z,24.00
2022-07-26T10:37:30.097Z,23.80
2022-07-26T10:40:30.055Z,23.30
2022-07-26T10:43:38.911Z,22.40
2022-07-26T10:46:33.646Z,21.60
2022-07-26T10:49:23.011Z,20.80
2022-07-26T10:52:07.674Z,20.20
2022-07-26T10:55:08.322Z,19.80
2022-07-26T10:57:39.103Z,19.40
2022-07-26T11:00:14.042Z,19.10
2022-07-26T11:02:43.922Z,18.80
2022-07-26T11:05:14.299Z,18.70
2022-07-26T11:08:01.697Z,18.50
2022-07-26T11:10:32.718Z,18.40
2022-07-26T11:13:08.359Z,18.30
2022-07-26T11:15:38.681Z,18.20
2022-07-26T11:18:12.525Z,18.10
2022-07-26T11:20:41.357Z,18.00
2022-07-26T11:23:29.291Z,17.90
2022-07-26T11:26:18.033Z,17.90
2022-07-26T11:29:49.082Z,17.80
2022-07-26T11:32:51.755Z,17.80
2022-07-26T11:36:26.677Z,17.80
2022-07-26T11:39:33.152Z,17.80
2022-07-26T11:42:14.823Z,17.80
2022-07-26T11:45:14.848Z,17.90
2022-07-26T11:47:59.348Z,17.90
2022-07-26T11:51:16.834Z,18.00
2022-07-26T11:53:58.226Z,18.10
2022-07-26T11:57:17.601Z,18.40
2022-07-26T12:00:18.184Z,18.80
2022-07-26T12:09:41.541Z,21.40
2022-07-26T12:12:31.924Z,22.00
2022-07-26T12:15:13.722Z,22.40
2022-07-26T12:18:14.356Z,22.60
2022-07-26T12:21:38.952Z,22.80
2022-07-26T12:24:39.920Z,23.40
2022-07-26T12:27:49.200Z,24.30
2022-07-26T12:38:01.561Z,25.60
2022-07-26T12:40:59.917Z,25.00
2022-07-26T12:43:49.798Z,24.00
2022-07-26T12:47:20.390Z,23.00
2022-07-26T12:50:05.740Z,22.50
2022-07-26T13:01:16.806Z,24.40
2022-07-26T13:03:46.298Z,24.10
2022-07-26T13:06:14.581Z,23.80
2022-07-26T13:08:42.747Z,23.50
2022-07-26T13:11:11.723Z,23.20
2022-07-26T13:13:39.960Z,23.00
2022-07-26T13:16:12.124Z,23.00
2022-07-26T13:18:40.635Z,23.70
2022-07-26T13:21:10.248Z,24.80
2022-07-26T13:23:38.317Z,25.50
2022-07-26T13:26:09.380Z,25.40
2022-07-26T13:28:39.906Z,25.80
2022-07-26T13:31:08.416Z,25.80
2022-07-26T13:33:39.383Z,25.20
2022-07-26T13:36:09.021Z,24.50
2022-07-26T13:38:37.199Z,24.40
2022-07-26T13:41:05.717Z,24.60
2022-07-26T13:43:35.317Z,25.10
2022-07-26T13:46:04.198Z,25.40
2022-07-26T13:48:32.558Z,25.60
2022-07-26T13:51:00.698Z,25.90
2022-07-26T13:53:31.150Z,25.90
2022-07-26T13:55:59.215Z,25.80
2022-07-26T13:58:27.248Z,25.40
2022-07-26T14:00:55.381Z,24.90
2022-07-26T14:03:23.830Z,24.40
2022-07-26T14:05:52.224Z,24.30
2022-07-26T14:08:20.401Z,24.00
2022-07-26T14:10:49.855Z,23.70
2022-07-26T14:13:17.931Z,23.40
2022-07-26T14:15:45.969Z,23.10
2022-07-26T14:18:14.028Z,22.90
2022-07-26T14:20:43.139Z,22.70
2022-07-26T14:23:11.229Z,22.50
2022-07-26T14:25:39.409Z,22.30
2022-07-26T14:28:08.862Z,22.10
2022-07-26T14:30:37.088Z,21.80
2022-07-26T14:33:06.011Z,21.50
2022-07-26T14:35:34.598Z,21.30
2022-07-26T14:38:02.964Z,21.20
2022-07-26T14:40:31.102Z,21.20
2022-07-26T14:42:59.450Z,21.20
2022-07-26T14:45:28.980Z,21.40
2022-07-26T14:47:57.712Z,21.40
2022-07-26T14:50:26.148Z,21.30
2022-07-26T14:52:56.135Z,21.00
2022-07-26T14:55:25.605Z,20.70
2022-07-26T14:57:53.990Z,20.30
2022-07-26T15:00:22.571Z,20.10
2022-07-26T15:02:52.263Z,19.90
2022-07-26T15:05:20.772Z,19.80
2022-07-26T15:07:48.995Z,19.60
2022-07-26T15:10:17.467Z,19.50
2022-07-26T15:12:45.938Z,19.40
2022-07-26T15:15:14.138Z,19.50
2022-07-26T15:17:42.585Z,19.60
2022-07-26T15:20:12.148Z,19.70
2022-07-26T15:22:40.757Z,19.90
2022-07-26T15:25:09.526Z,20.20
2022-07-26T15:27:37.685Z,20.30
2022-07-26T15:30:10.253Z,20.50
2022-07-26T15:32:42.096Z,20.60
2022-07-26T15:35:14.554Z,20.70
2022-07-26T15:37:44.736Z,21.00
2022-07-26T15:40:13.823Z,21.40
2022-07-26T15:42:43.473Z,21.70
2022-07-26T15:45:13.550Z,21.70
2022-07-26T15:48:05.542Z,21.50
2022-07-26T15:50:31.780Z,21.40
2022-07-26T15:52:59.815Z,21.20
2022-07-26T15:55:27.885Z,21.20
2022-07-26T15:57:55.905Z,21.10
2022-07-26T16:00:23.994Z,21.20
2022-07-26T16:02:52.478Z,21.20
2022-07-26T16:05:20.822Z,21.10
2022-07-26T16:07:50.276Z,21.30
2022-07-26T16:10:18.599Z,21.40
2022-07-26T16:12:46.664Z,21.40
2022-07-26T16:15:15.142Z,21.40
2022-07-26T16:17:43.247Z,21.40
2022-07-26T16:20:11.904Z,21.40
2022-07-26T16:22:41.787Z,21.40
2022-07-26T16:25:13.750Z,21.30
2022-07-26T16:27:43.509Z,21.40
2022-07-26T16:30:13.418Z,21.70
2022-07-26T16:32:41.634Z,22.00
2022-07-26T16:35:10.661Z,22.00
2022-07-26T16:37:38.761Z,22.10
2022-07-26T16:40:08.537Z,21.70
2022-07-26T16:42:38.052Z,21.40
2022-07-26T16:45:06.671Z,21.00
2022-07-26T16:47:34.758Z,20.70
2022-07-26T16:50:03.059Z,20.40
2022-07-26T16:52:31.174Z,20.10
2022-07-26T16:55:00.165Z,19.90
2022-07-26T16:57:28.418Z,19.80
2022-07-26T16:59:58.257Z,19.60
2022-07-26T17:02:26.437Z,19.50
2022-07-26T17:04:57.172Z,19.40
2022-07-26T17:07:26.300Z,19.30
2022-07-26T17:09:55.071Z,19.30
2022-07-26T17:12:23.805Z,19.20
2022-07-26T17:14:52.246Z,19.20
2022-07-26T17:17:21.692Z,19.10
2022-07-26T17:19:49.953Z,19.00
2022-07-26T17:22:18.240Z,19.00
2022-07-26T17:24:46.412Z,18.90
2022-07-26T17:27:14.745Z,18.90
2022-07-26T17:29:42.811Z,18.80
2022-07-26T17:32:11.591Z,18.80
2022-07-26T17:34:41.170Z,18.70
2022-07-26T17:37:10.359Z,18.60
2022-07-26T17:39:51.614Z,18.60
2022-07-26T17:42:21.839Z,18.60
2022-07-26T17:44:50.164Z,18.50
2022-07-26T17:47:29.724Z,18.50
2022-07-26T17:50:26.347Z,18.50
2022-07-26T17:52:49.591Z,18.50
2022-07-26T17:55:18.972Z,18.60
2022-07-26T17:57:48.277Z,18.60
2022-07-26T18:00:18.986Z,18.70
2022-07-26T18:02:47.132Z,18.80
2022-07-26T18:05:18.406Z,18.80
2022-07-26T18:07:46.866Z,18.80
2022-07-26T18:10:15.381Z,18.80
2022-07-26T18:12:43.672Z,18.80
2022-07-26T18:15:12.415Z,18.80
2022-07-26T18:17:40.687Z,18.70
2022-07-26T18:20:09.954Z,18.60
2022-07-26T18:22:39.486Z,18.50
2022-07-26T18:25:08.050Z,18.40
2022-07-26T18:27:36.158Z,18.40
2022-07-26T18:30:05.329Z,18.30
2022-07-26T18:32:34.137Z,18.20
2022-07-26T18:35:02.313Z,18.20
2022-07-26T18:37:30.330Z,18.20
2022-07-26T18:40:00.966Z,18.20
2022-07-26T18:42:29.094Z,18.10
2022-07-26T18:44:57.278Z,18.10
2022-07-26T18:47:25.746Z,18.00
2022-07-26T18:49:53.936Z,18.00
2022-07-26T18:52:28.175Z,17.90
2022-07-26T18:54:58.558Z,17.90
2022-07-26T18:57:28.076Z,17.90
2022-07-26T18:59:56.145Z,17.90
2022-07-26T19:02:24.212Z,17.80
2022-07-26T19:04:52.325Z,17.80
2022-07-26T19:07:20.337Z,17.80
2022-07-26T19:09:49.225Z,17.80
2022-07-26T19:12:17.379Z,17.80
2022-07-26T19:14:46.789Z,17.80
2022-07-26T19:17:14.955Z,17.70
2022-07-26T19:19:43.978Z,17.80
2022-07-26T19:22:12.115Z,17.80
2022-07-26T19:24:40.319Z,17.80
2022-07-26T19:27:09.416Z,17.70
2022-07-26T19:29:37.681Z,17.70
2022-07-26T19:32:08.429Z,17.70
2022-07-26T19:34:36.717Z,17.70
2022-07-26T19:37:04.885Z,17.70
2022-07-26T19:39:33.029Z,17.70
2022-07-26T19:42:01.221Z,17.60
2022-07-26T19:44:29.305Z,17.60
2022-07-26T19:46:58.136Z,17.60
2022-07-26T19:49:28.540Z,17.50
2022-07-26T19:51:59.832Z,17.50
2022-07-26T19:54:28.422Z,17.50
2022-07-26T19:56:56.679Z,17.40
2022-07-26T19:59:25.249Z,17.40
2022-07-26T20:01:56.611Z,17.30
2022-07-26T20:04:28.007Z,17.20
2022-07-26T20:06:56.482Z,17.10
2022-07-26T20:09:24.761Z,17.10
2022-07-26T20:11:52.922Z,17.00
2022-07-26T20:14:21.574Z,17.00
2022-07-26T20:16:54.318Z,16.90
2022-07-26T20:19:26.718Z,16.90
2022-07-26T20:21:56.302Z,16.90
2022-07-26T20:24:24.417Z,16.90
2022-07-26T20:26:52.625Z,16.90
2022-07-26T20:29:20.812Z,16.90
2022-07-26T20:31:48.946Z,16.90
2022-07-26T20:34:17.030Z,16.90
2022-07-26T20:36:45.144Z,16.90
2022-07-26T20:39:15.310Z,16.80
2022-07-26T20:41:43.611Z,16.80
2022-07-26T20:44:12.336Z,16.80
2022-07-26T20:46:41.871Z,16.80
2022-07-26T20:49:10.911Z,16.80
2022-07-26T20:51:39.720Z,16.80
2022-07-26T20:54:08.643Z,16.70
2022-07-26T20:56:38.291Z,16.70
2022-07-26T20:59:06.598Z,16.70
2022-07-26T21:01:35.389Z,16.60
2022-07-26T21:04:03.794Z,16.60
2022-07-26T21:06:33.158Z,16.50
2022-07-26T21:09:10.070Z,16.40
2022-07-26T21:11:40.430Z,16.40
2022-07-26T21:14:08.552Z,16.30
2022-07-26T21:16:37.062Z,16.20
2022-07-26T21:19:06.454Z,16.20
2022-07-26T21:21:36.989Z,16.10
2022-07-26T21:24:06.027Z,16.10
2022-07-26T21:26:34.205Z,16.10
2022-07-26T21:29:03.782Z,16.00
2022-07-26T21:31:31.923Z,16.00
2022-07-26T21:34:00.181Z,16.00
2022-07-26T21:36:28.355Z,15.90
2022-07-26T21:38:56.631Z,15.90
2022-07-26T21:41:24.776Z,15.90
2022-07-26T21:43:52.838Z,15.90
2022-07-26T21:46:22.433Z,15.90
2022-07-26T21:48:50.628Z,15.90
2022-07-26T21:51:18.885Z,15.90
2022-07-26T21:53:47.000Z,15.80
2022-07-26T21:56:15.219Z,15.80
2022-07-26T21:58:43.291Z,15.80
2022-07-26T22:01:12.681Z,15.70
2022-07-26T22:03:43.701Z,15.70
2022-07-26T22:06:12.105Z,15.70
2022-07-26T22:08:40.349Z,15.60
2022-07-26T22:11:08.579Z,15.60
2022-07-26T22:13:36.664Z,15.50
2022-07-26T22:16:05.206Z,15.50
2022-07-26T22:18:33.333Z,15.50
2022-07-26T22:21:03.006Z,15.50
2022-07-26T22:23:31.111Z,15.40
2022-07-26T22:26:01.730Z,15.40
2022-07-26T22:28:30.626Z,15.40
2022-07-26T22:30:58.900Z,15.30
2022-07-26T22:33:27.066Z,15.30
2022-07-26T22:35:55.323Z,15.20
2022-07-26T22:38:24.794Z,15.20
2022-07-26T22:40:52.896Z,15.20
2022-07-26T22:43:21.476Z,15.20
2022-07-26T22:45:49.783Z,15.20
2022-07-26T22:48:17.967Z,15.20
2022-07-26T22:50:46.036Z,15.20
2022-07-26T22:53:14.067Z,15.20
2022-07-26T22:55:43.602Z,15.20
2022-07-26T22:58:11.716Z,15.20
2022-07-26T23:00:39.897Z,15.20
2022-07-26T23:03:15.974Z,15.20
2022-07-26T23:05:49.050Z,15.10
2022-07-26T23:11:07.152Z,15.10
2022-07-26T23:13:35.392Z,15.10
2022-07-26T23:16:03.520Z,15.10
2022-07-26T23:18:32.249Z,15.00
2022-07-26T23:21:00.377Z,15.00
2022-07-26T23:23:29.972Z,15.00
2022-07-26T23:25:59.250Z,15.00
2022-07-26T23:28:37.213Z,15.00
2022-07-26T23:31:08.324Z,15.00
2022-07-26T23:33:51.821Z,15.00
2022-07-26T23:36:26.539Z,14.90
2022-07-26T23:38:55.705Z,15.00
2022-07-26T23:41:24.472Z,14.90
2022-07-26T23:43:54.508Z,14.90
2022-07-26T23:46:23.232Z,14.90
2022-07-26T23:48:51.899Z,14.90
2022-07-26T23:51:20.450Z,14.90
2022-07-26T23:53:48.618Z,15.00
2022-07-26T23:56:16.821Z,15.00
2022-07-26T23:58:45.020Z,15.00
